createdAt,value
2022-09-02T00:01:22.421Z,43.31
2022-09-02T00:03:50.224Z,43.34
2022-09-02T00:06:18.358Z,43.33
2022-09-02T00:08:47.533Z,43.42
2022-09-02T00:11:17.885Z,43.38
2022-09-02T00:13:46.447Z,43.60
2022-09-02T00:16:14.606Z,43.31
2022-09-02T00:18:45.884Z,43.48
2022-09-02T00:21:14.857Z,43.32
2022-09-02T00:23:44.127Z,43.41
2022-09-02T00:26:13.302Z,43.56
2022-09-02T00:28:44.310Z,43.42
2022-09-02T00:31:17.530Z,43.66
2022-09-02T00:33:46.860Z,43.69
2022-09-02T00:36:14.726Z,43.41
2022-09-02T00:38:42.473Z,43.55
2022-09-02T00:41:12.286Z,43.48
2022-09-02T00:43:45.182Z,43.56
2022-09-02T00:46:16.113Z,43.65
2022-09-02T00:48:48.555Z,43.62
2022-09-02T00:51:16.665Z,43.83
2022-09-02T00:53:47.671Z,43.75
2022-09-02T00:56:21.783Z,43.86
2022-09-02T00:58:51.131Z,43.82
2022-09-02T01:01:19.361Z,43.89
2022-09-02T01:03:49.057Z,43.94
2022-09-02T01:06:21.872Z,44.06
2022-09-02T01:08:57.094Z,44.21
2022-09-02T01:11:25.047Z,43.94
2022-09-02T01:13:52.792Z,44.24
2022-09-02T01:16:26.251Z,44.26
2022-09-02T01:18:59.095Z,44.03
2022-09-02T01:21:27.507Z,44.37
2022-09-02T01:23:56.844Z,44.33
2022-09-02T01:26:24.559Z,44.30
2022-09-02T01:28:52.283Z,44.45
2022-09-02T01:31:20.060Z,44.71
2022-09-02T01:33:47.887Z,44.76
2022-09-02T01:36:15.722Z,44.70
2022-09-02T01:38:43.610Z,44.83
2022-09-02T01:41:12.712Z,44.85
2022-09-02T01:43:40.399Z,44.89
2022-09-02T01:46:08.537Z,45.15
2022-09-02T01:48:36.302Z,45.15
2022-09-02T01:51:06.801Z,45.23
2022-09-02T01:53:35.013Z,45.26
2022-09-02T01:56:02.893Z,45.41
2022-09-02T01:58:31.948Z,45.35
2022-09-02T02:00:59.706Z,45.56
2022-09-02T02:03:27.563Z,45.55
2022-09-02T02:05:56.631Z,45.62
2022-09-02T02:08:24.792Z,45.72
2022-09-02T02:10:52.639Z,45.67
2022-09-02T02:13:20.469Z,45.66
2022-09-02T02:15:49.644Z,45.83
2022-09-02T02:18:17.364Z,45.85
2022-09-02T02:20:45.762Z,46.02
2022-09-02T02:23:14.381Z,46.07
2022-09-02T02:25:42.175Z,46.30
2022-09-02T02:28:10.096Z,46.48
2022-09-02T02:30:38.377Z,46.45
2022-09-02T02:33:07.615Z,46.54
2022-09-02T02:35:35.951Z,46.81
2022-09-02T02:38:04.135Z,46.77
2022-09-02T02:40:33.253Z,47.03
2022-09-02T02:43:01.068Z,47.13
2022-09-02T02:45:28.856Z,47.13
2022-09-02T02:47:56.627Z,47.16
2022-09-02T02:50:25.844Z,47.30
2022-09-02T02:52:54.917Z,47.42
2022-09-02T02:55:23.645Z,47.62
2022-09-02T02:57:52.045Z,47.48
2022-09-02T03:00:23.006Z,47.76
2022-09-02T03:02:51.451Z,48.09
2022-09-02T03:05:19.444Z,48.25
2022-09-02T03:07:48.578Z,47.88
2022-09-02T03:10:16.582Z,47.77
2022-09-02T03:12:47.553Z,47.72
2022-09-02T03:15:18.345Z,47.94
2022-09-02T03:17:46.163Z,47.79
2022-09-02T03:20:15.804Z,47.55
2022-09-02T03:22:43.971Z,47.58
2022-09-02T03:25:15.021Z,47.63
2022-09-02T03:27:44.768Z,47.88
2022-09-02T03:30:14.947Z,47.74
2022-09-02T03:32:43.207Z,47.87
2022-09-02T03:35:13.681Z,47.63
2022-09-02T03:37:41.458Z,47.58
2022-09-02T03:40:12.555Z,47.63
2022-09-02T03:42:41.752Z,47.58
2022-09-02T03:45:11.999Z,47.50
2022-09-02T03:47:43.878Z,47.63
2022-09-02T03:50:11.944Z,47.69
2022-09-02T03:52:39.721Z,47.67
2022-09-02T03:55:08.279Z,47.56
2022-09-02T03:57:37.134Z,47.84
2022-09-02T04:00:09.199Z,47.68
2022-09-02T04:02:37.089Z,47.74
2022-09-02T04:05:06.001Z,47.66
2022-09-02T04:07:41.672Z,47.96
2022-09-02T04:12:56.833Z,47.86
2022-09-02T04:15:26.450Z,47.93
2022-09-02T04:18:49.191Z,47.77
2022-09-02T04:21:19.719Z,47.77
2022-09-02T04:23:47.474Z,47.86
2022-09-02T04:26:17.643Z,47.88
2022-09-02T04:28:45.563Z,48.03
2022-09-02T04:31:16.894Z,47.90
2022-09-02T04:33:44.856Z,47.98
2022-09-02T04:36:15.148Z,47.90
2022-09-02T04:38:43.302Z,48.04
2022-09-02T04:41:13.375Z,48.22
2022-09-02T04:43:42.183Z,48.13
2022-09-02T04:46:12.720Z,48.16
2022-09-02T04:48:42.574Z,48.09
2022-09-02T04:51:12.834Z,48.11
2022-09-02T04:53:41.852Z,47.97
2022-09-02T04:56:11.622Z,47.87
2022-09-02T04:58:39.855Z,47.90
2022-09-02T05:01:08.827Z,47.97
2022-09-02T05:03:37.256Z,47.75
2022-09-02T05:06:09.451Z,47.69
2022-09-02T05:08:37.516Z,47.94
2022-09-02T05:11:06.821Z,47.83
2022-09-02T05:13:35.170Z,47.76
2022-09-02T05:16:03.755Z,47.76
2022-09-02T05:18:31.563Z,47.77
2022-09-02T05:20:59.347Z,47.81
2022-09-02T05:23:28.436Z,47.87
2022-09-02T05:25:56.173Z,47.94
2022-09-02T05:28:23.907Z,47.79
2022-09-02T05:30:51.674Z,47.82
2022-09-02T05:33:19.891Z,47.73
2022-09-02T05:35:49.738Z,47.49
2022-09-02T05:38:17.677Z,47.52
2022-09-02T05:40:46.885Z,47.90
2022-09-02T05:43:14.734Z,47.95
2022-09-02T05:45:42.588Z,47.68
2022-09-02T05:48:24.750Z,47.86
2022-09-02T05:50:57.330Z,47.95
2022-09-02T05:53:26.937Z,47.88
2022-09-02T05:55:56.434Z,48.05
2022-09-02T05:58:24.787Z,47.66
2022-09-02T06:00:52.587Z,47.74
2022-09-02T06:03:20.937Z,47.58
2022-09-02T06:05:55.595Z,47.67
2022-09-02T06:08:23.387Z,47.73
2022-09-02T06:10:51.827Z,47.85
2022-09-02T06:13:22.587Z,47.57
2022-09-02T06:15:51.799Z,47.84
2022-09-02T06:18:19.656Z,47.54
2022-09-02T06:20:48.844Z,47.65
2022-09-02T06:23:17.328Z,47.36
2022-09-02T06:25:47.823Z,47.08
2022-09-02T06:28:16.439Z,46.87
2022-09-02T06:30:48.425Z,46.74
2022-09-02T06:33:16.348Z,46.49
2022-09-02T06:35:46.412Z,46.27
2022-09-02T06:38:15.598Z,46.02
2022-09-02T06:40:49.322Z,46.06
2022-09-02T06:43:17.169Z,46.00
2022-09-02T06:45:46.705Z,45.40
2022-09-02T06:48:14.981Z,45.32
2022-09-02T06:50:45.636Z,45.59
2022-09-02T06:53:13.970Z,45.67
2022-09-02T06:55:44.799Z,45.67
2022-09-02T06:58:12.944Z,45.82
2022-09-02T07:00:41.619Z,46.18
2022-09-02T07:03:29.170Z,46.33
2022-09-02T07:06:04.953Z,46.26
2022-09-02T07:08:32.704Z,46.47
2022-09-02T07:11:00.435Z,46.71
2022-09-02T07:13:28.251Z,47.01
2022-09-02T07:15:55.970Z,46.97
2022-09-02T07:18:25.039Z,47.12
2022-09-02T07:20:53.327Z,46.89
2022-09-02T07:23:21.317Z,46.77
2022-09-02T07:25:49.292Z,47.04
2022-09-02T07:28:17.128Z,46.65
2022-09-02T07:30:45.846Z,46.46
2022-09-02T07:33:14.438Z,46.54
2022-09-02T07:35:44.348Z,46.40
2022-09-02T07:38:12.715Z,46.03
2022-09-02T07:40:41.931Z,46.00
2022-09-02T07:43:11.787Z,45.88
2022-09-02T07:45:39.894Z,45.98
2022-09-02T07:48:08.187Z,45.56
2022-09-02T07:50:37.175Z,45.30
2022-09-02T07:53:06.756Z,45.13
2022-09-02T07:55:36.116Z,44.86
2022-09-02T07:58:04.945Z,44.99
2022-09-02T08:00:32.821Z,44.28
2022-09-02T08:03:01.698Z,44.23
2022-09-02T08:05:30.865Z,44.76
2022-09-02T08:07:59.036Z,44.85
2022-09-02T08:10:30.061Z,44.62
2022-09-02T08:13:00.244Z,44.35
2022-09-02T08:15:29.035Z,43.96
2022-09-02T08:17:57.846Z,44.00
2022-09-02T08:20:25.678Z,44.10
2022-09-02T08:23:05.002Z,43.90
2022-09-02T08:25:42.448Z,43.49
2022-09-02T08:28:10.594Z,43.74
2022-09-02T08:30:38.519Z,43.35
2022-09-02T08:33:06.274Z,43.36
2022-09-02T08:35:34.855Z,43.03
2022-09-02T08:38:03.008Z,42.58
2022-09-02T08:40:37.569Z,41.98
2022-09-02T08:43:25.970Z,41.87
2022-09-02T08:45:56.111Z,42.25
2022-09-02T08:48:35.900Z,41.95
2022-09-02T08:51:08.662Z,42.03
2022-09-02T08:53:42.719Z,42.15
2022-09-02T08:56:12.959Z,42.16
2022-09-02T08:58:47.156Z,42.06
2022-09-02T09:01:25.243Z,42.23
2022-09-02T09:04:17.500Z,42.13
2022-09-02T09:07:00.230Z,42.38
2022-09-02T09:09:36.097Z,42.41
2022-09-02T09:12:11.871Z,41.83
2022-09-02T09:14:49.503Z,41.29
2022-09-02T09:17:26.555Z,41.68
2022-09-02T09:19:55.617Z,41.72
2022-09-02T09:22:27.791Z,41.60
2022-09-02T09:24:58.571Z,41.38
2022-09-02T09:27:27.205Z,41.75
2022-09-02T09:29:56.359Z,41.69
2022-09-02T09:32:30.136Z,41.50
2022-09-02T09:35:03.046Z,41.65
2022-09-02T09:37:36.294Z,40.79
2022-09-02T09:40:24.665Z,40.92
2022-09-02T09:42:57.005Z,41.02
2022-09-02T09:45:33.297Z,41.22
2022-09-02T09:48:14.928Z,40.69
2022-09-02T09:50:43.782Z,40.83
2022-09-02T09:53:21.648Z,40.44
2022-09-02T09:55:55.143Z,40.88
2022-09-02T09:58:24.503Z,40.44
2022-09-02T10:00:57.188Z,40.69
2022-09-02T10:03:32.984Z,40.49
2022-09-02T10:06:20.259Z,39.98
2022-09-02T10:08:57.296Z,40.04
2022-09-02T10:11:27.592Z,40.08
2022-09-02T10:14:00.255Z,39.48
2022-09-02T10:16:42.615Z,39.11
2022-09-02T10:19:16.059Z,39.09
2022-09-02T10:22:02.289Z,39.26
2022-09-02T10:24:47.512Z,38.96
2022-09-02T10:27:19.158Z,39.38
2022-09-02T10:29:55.948Z,39.42
2022-09-02T10:32:46.727Z,39.44
2022-09-02T10:35:22.524Z,39.38
2022-09-02T10:38:13.409Z,39.68
2022-09-02T10:40:49.951Z,39.20
2022-09-02T10:43:29.526Z,38.79
2022-09-02T10:46:01.380Z,38.74
2022-09-02T10:48:46.131Z,37.75
2022-09-02T10:51:20.404Z,37.25
2022-09-02T10:54:01.761Z,36.79
2022-09-02T10:56:35.063Z,36.45
2022-09-02T10:59:09.442Z,37.16
2022-09-02T11:01:44.973Z,37.26
2022-09-02T11:04:24.257Z,37.36
2022-09-02T11:07:02.359Z,37.26
2022-09-02T11:09:36.960Z,37.28
2022-09-02T11:12:11.009Z,37.14
2022-09-02T11:14:48.907Z,37.60
2022-09-02T11:17:23.202Z,37.40
2022-09-02T11:19:59.194Z,37.39
2022-09-02T11:22:31.370Z,36.95
2022-09-02T11:25:04.761Z,36.90
2022-09-02T11:27:42.409Z,36.55
2022-09-02T11:30:14.792Z,36.33
2022-09-02T11:32:46.695Z,36.47
2022-09-02T11:35:21.016Z,35.88
2022-09-02T11:37:53.687Z,36.52
2022-09-02T11:40:34.691Z,35.75
2022-09-02T11:43:24.922Z,34.73
2022-09-02T11:46:05.757Z,34.79
2022-09-02T11:49:06.337Z,34.54
2022-09-02T11:51:55.695Z,33.82
2022-09-02T11:54:27.473Z,34.15
2022-09-02T11:57:01.869Z,34.92
2022-09-02T12:00:06.492Z,34.54
2022-09-02T12:02:39.199Z,34.29
2022-09-02T12:05:44.511Z,33.85
2022-09-02T12:08:15.502Z,33.16
2022-09-02T12:11:00.834Z,32.35
2022-09-02T12:13:41.010Z,32.52
2022-09-02T12:16:38.810Z,31.98
2022-09-02T12:19:28.959Z,30.82
2022-09-02T12:22:42.481Z,31.48
2022-09-02T12:25:42.199Z,30.85
2022-09-02T12:28:28.465Z,30.81
2022-09-02T12:31:17.729Z,30.36
2022-09-02T12:33:51.762Z,30.61
2022-09-02T12:36:47.454Z,29.66
2022-09-02T12:39:46.375Z,29.52
2022-09-02T12:42:25.635Z,29.35
2022-09-02T12:45:04.725Z,29.27
2022-09-02T12:47:47.471Z,28.90
2022-09-02T12:50:23.352Z,28.86
2022-09-02T12:52:52.637Z,29.19
2022-09-02T12:55:25.203Z,29.38
2022-09-02T12:57:56.892Z,29.08
2022-09-02T13:00:35.020Z,29.46
2022-09-02T13:03:32.943Z,29.21
2022-09-02T13:06:07.381Z,29.17
2022-09-02T13:08:59.079Z,28.51
2022-09-02T13:12:15.486Z,28.90
2022-09-02T13:15:02.625Z,28.73
2022-09-02T13:17:46.287Z,28.69
2022-09-02T13:20:44.675Z,27.69
2022-09-02T13:23:40.976Z,27.42
2022-09-02T13:26:39.124Z,27.62
2022-09-02T13:29:37.894Z,27.23
2022-09-02T13:32:15.761Z,27.43
2022-09-02T13:34:44.858Z,27.14
2022-09-02T13:37:36.500Z,27.39
2022-09-02T13:40:17.604Z,27.77
2022-09-02T13:42:49.857Z,27.35
2022-09-02T13:45:19.710Z,28.21
2022-09-02T13:47:52.662Z,28.29
2022-09-02T13:50:23.015Z,28.51
2022-09-02T13:55:49.418Z,28.13
2022-09-02T13:58:25.270Z,28.58
2022-09-02T14:00:53.131Z,28.04
2022-09-02T14:03:27.405Z,27.75
2022-09-02T14:05:59.970Z,28.23
2022-09-02T14:08:30.104Z,28.40
2022-09-02T14:10:58.494Z,28.57
2022-09-02T14:13:27.758Z,28.39
2022-09-02T14:15:55.640Z,28.25
2022-09-02T14:18:26.509Z,28.55
2022-09-02T14:20:59.042Z,28.55
2022-09-02T14:23:28.382Z,28.05
2022-09-02T14:25:58.276Z,28.27
2022-09-02T14:28:28.367Z,27.98
2022-09-02T14:30:59.920Z,27.43
2022-09-02T14:33:39.738Z,26.63
2022-09-02T14:36:09.811Z,26.66
2022-09-02T14:38:50.231Z,27.12
2022-09-02T14:41:23.171Z,26.75
2022-09-02T14:43:53.979Z,27.12
2022-09-02T14:46:28.933Z,27.08
2022-09-02T14:49:03.094Z,26.98
2022-09-02T14:51:37.849Z,26.84
2022-09-02T14:54:06.979Z,27.32
2022-09-02T14:56:54.739Z,26.43
2022-09-02T14:59:22.467Z,26.68
2022-09-02T15:01:52.950Z,27.21
2022-09-02T15:04:22.383Z,26.89
2022-09-02T15:06:51.659Z,26.96
2022-09-02T15:09:19.684Z,26.95
2022-09-02T15:11:51.746Z,27.21
2022-09-02T15:14:19.321Z,27.79
2022-09-02T15:16:47.983Z,27.44
2022-09-02T15:19:15.759Z,27.48
2022-09-02T15:21:44.823Z,27.60
2022-09-02T15:24:12.719Z,27.34
2022-09-02T15:26:40.508Z,27.97
2022-09-02T15:29:08.217Z,27.86
2022-09-02T15:31:36.460Z,27.76
2022-09-02T15:34:04.831Z,27.79
2022-09-02T15:36:32.565Z,27.70
2022-09-02T15:39:01.664Z,27.38
2022-09-02T15:41:31.408Z,27.69
2022-09-02T15:44:00.645Z,27.92
2022-09-02T15:46:29.564Z,27.98
2022-09-02T15:49:02.690Z,28.08
2022-09-02T15:51:31.041Z,28.25
2022-09-02T15:54:03.492Z,27.81
2022-09-02T15:56:33.346Z,27.88
2022-09-02T15:59:02.334Z,27.94
2022-09-02T16:01:31.805Z,28.27
2022-09-02T16:04:00.439Z,28.41
2022-09-02T16:06:28.241Z,28.19
2022-09-02T16:08:56.475Z,28.33
2022-09-02T16:11:26.325Z,28.46
2022-09-02T16:13:54.975Z,28.65
2022-09-02T16:16:22.849Z,28.52
2022-09-02T16:18:52.219Z,28.70
2022-09-02T16:21:21.402Z,28.82
2022-09-02T16:23:50.255Z,28.89
2022-09-02T16:26:24.716Z,28.64
2022-09-02T16:28:55.541Z,28.95
2022-09-02T16:31:25.385Z,28.70
2022-09-02T16:33:54.513Z,28.91
2022-09-02T16:36:22.551Z,29.13
2022-09-02T16:38:50.479Z,28.68
2022-09-02T16:41:27.246Z,29.03
2022-09-02T16:43:58.053Z,29.29
2022-09-02T16:46:27.004Z,29.11
2022-09-02T16:48:55.968Z,29.23
2022-09-02T16:51:24.870Z,29.21
2022-09-02T16:53:55.411Z,29.02
2022-09-02T16:56:24.209Z,29.08
2022-09-02T16:58:52.523Z,28.79
2022-09-02T17:01:23.096Z,29.05
2022-09-02T17:03:51.620Z,28.94
2022-09-02T17:06:19.766Z,28.88
2022-09-02T17:08:47.634Z,29.04
2022-09-02T17:11:20.937Z,28.94
2022-09-02T17:13:50.241Z,28.57
2022-09-02T17:16:19.325Z,28.80
2022-09-02T17:18:48.733Z,28.89
2022-09-02T17:21:26.437Z,28.91
2022-09-02T17:23:55.145Z,29.04
2022-09-02T17:26:24.596Z,29.22
2022-09-02T17:28:54.745Z,29.18
2022-09-02T17:31:25.533Z,29.20
2022-09-02T17:33:56.412Z,29.58
2022-09-02T17:36:25.965Z,29.95
2022-09-02T17:38:56.960Z,29.75
2022-09-02T17:41:42.318Z,30.02
2022-09-02T17:44:10.124Z,30.11
2022-09-02T17:46:37.864Z,30.01
2022-09-02T17:49:16.851Z,30.29
2022-09-02T17:51:46.436Z,30.29
2022-09-02T17:54:15.131Z,30.38
2022-09-02T17:57:08.555Z,30.20
2022-09-02T17:59:48.379Z,30.19
2022-09-02T18:02:41.674Z,30.46
2022-09-02T18:05:21.353Z,30.43
2022-09-02T18:07:53.708Z,30.54
2022-09-02T18:10:22.473Z,30.55
2022-09-02T18:12:50.436Z,30.93
2022-09-02T18:15:19.448Z,30.95
2022-09-02T18:17:50.654Z,31.08
2022-09-02T18:20:27.897Z,31.13
2022-09-02T18:23:20.715Z,31.19
2022-09-02T18:25:55.543Z,30.91
2022-09-02T18:28:43.671Z,31.24
2022-09-02T18:31:28.467Z,31.11
2022-09-02T18:34:06.696Z,31.57
2022-09-02T18:36:44.144Z,31.66
2022-09-02T18:39:27.058Z,31.52
2022-09-02T18:42:09.249Z,31.47
2022-09-02T18:44:45.399Z,31.76
2022-09-02T18:47:18.328Z,31.91
2022-09-02T18:49:47.114Z,32.25
2022-09-02T18:52:16.222Z,32.60
2022-09-02T18:54:47.947Z,32.39
2022-09-02T18:57:16.081Z,33.06
2022-09-02T18:59:51.543Z,33.18
2022-09-02T19:02:29.215Z,33.17
2022-09-02T19:04:58.680Z,32.88
2022-09-02T19:07:47.750Z,33.34
2022-09-02T19:10:15.853Z,33.02
2022-09-02T19:12:44.135Z,33.35
2022-09-02T19:15:13.642Z,33.45
2022-09-02T19:17:42.127Z,33.38
2022-09-02T19:20:10.990Z,33.77
2022-09-02T19:22:43.371Z,33.52
2022-09-02T19:25:14.167Z,33.85
2022-09-02T19:27:44.861Z,33.47
2022-09-02T19:30:15.892Z,33.94
2022-09-02T19:32:46.389Z,34.10
2022-09-02T19:35:17.388Z,34.19
2022-09-02T19:37:51.185Z,34.36
2022-09-02T19:40:22.068Z,34.52
2022-09-02T19:42:51.934Z,34.66
2022-09-02T19:45:21.634Z,34.51
2022-09-02T19:48:06.495Z,34.56
2022-09-02T19:50:36.063Z,34.95
2022-09-02T19:53:05.874Z,34.94
2022-09-02T19:55:35.790Z,35.00
2022-09-02T19:58:03.486Z,34.98
2022-09-02T20:00:33.202Z,35.13
2022-09-02T20:03:03.288Z,35.32
2022-09-02T20:05:32.107Z,35.42
2022-09-02T20:07:59.866Z,35.56
2022-09-02T20:10:29.790Z,35.70
2022-09-02T20:12:58.028Z,35.72
2022-09-02T20:15:25.776Z,35.87
2022-09-02T20:17:53.676Z,36.00
2022-09-02T20:20:23.880Z,36.00
2022-09-02T20:22:55.698Z,36.16
2022-09-02T20:25:33.495Z,36.25
2022-09-02T20:28:11.764Z,36.44
2022-09-02T20:30:45.897Z,36.45
2022-09-02T20:33:17.468Z,36.74
2022-09-02T20:36:02.047Z,36.81
2022-09-02T20:38:49.654Z,36.75
2022-09-02T20:41:30.277Z,36.91
2022-09-02T20:44:14.612Z,37.02
2022-09-02T20:46:59.076Z,37.14
2022-09-02T20:49:47.699Z,37.36
2022-09-02T20:52:22.683Z,37.34
2022-09-02T20:55:00.307Z,37.54
2022-09-02T20:57:40.491Z,37.58
2022-09-02T21:00:11.085Z,37.75
2022-09-02T21:02:45.243Z,37.63
2022-09-02T21:05:22.102Z,37.76
2022-09-02T21:07:57.839Z,37.65
2022-09-02T21:10:29.997Z,37.83
2022-09-02T21:13:07.866Z,38.00
2022-09-02T21:15:42.779Z,38.07
2022-09-02T21:18:17.419Z,38.04
2022-09-02T21:20:48.634Z,38.24
2022-09-02T21:23:21.998Z,38.07
2022-09-02T21:25:55.959Z,38.11
2022-09-02T21:28:30.935Z,38.19
2022-09-02T21:31:04.893Z,38.24
2022-09-02T21:33:36.163Z,38.37
2022-09-02T21:36:06.316Z,38.36
2022-09-02T21:38:40.498Z,38.39
2022-09-02T21:41:25.671Z,38.56
2022-09-02T21:44:03.443Z,38.56
2022-09-02T21:46:39.156Z,38.80
2022-09-02T21:49:28.162Z,38.92
2022-09-02T21:52:08.892Z,39.09
2022-09-02T21:54:51.642Z,39.17
2022-09-02T21:57:38.786Z,39.24
2022-09-02T22:00:10.771Z,39.10
2022-09-02T22:02:49.960Z,39.17
2022-09-02T22:05:39.907Z,39.44
2022-09-02T22:08:17.239Z,39.28
2022-09-02T22:11:00.362Z,39.33
2022-09-02T22:13:31.603Z,39.70
2022-09-02T22:16:13.453Z,39.70
2022-09-02T22:18:45.191Z,39.72
2022-09-02T22:21:20.970Z,39.83
2022-09-02T22:23:59.774Z,40.14
2022-09-02T22:26:41.039Z,40.23
2022-09-02T22:29:18.582Z,40.30
2022-09-02T22:31:54.185Z,40.40
2022-09-02T22:34:23.815Z,40.26
2022-09-02T22:37:03.238Z,40.38
2022-09-02T22:39:38.402Z,40.42
2022-09-02T22:42:20.198Z,40.89
2022-09-02T22:45:15.313Z,40.73
2022-09-02T22:48:10.167Z,40.89
2022-09-02T22:51:02.659Z,40.65
2022-09-02T22:53:30.953Z,40.95
2022-09-02T22:56:02.435Z,40.95
2022-09-02T22:58:57.609Z,40.92
2022-09-02T23:01:34.278Z,40.92
2022-09-02T23:04:18.217Z,41.28
2022-09-02T23:06:46.394Z,41.05
2022-09-02T23:09:15.998Z,41.07
2022-09-02T23:11:56.729Z,41.35
2022-09-02T23:14:35.470Z,41.18
2022-09-02T23:17:33.728Z,41.31
2022-09-02T23:20:13.237Z,41.32
2022-09-02T23:23:11.650Z,41.71
2022-09-02T23:25:54.663Z,41.61
2022-09-02T23:28:32.548Z,41.59
2022-09-02T23:31:08.913Z,41.60
2022-09-02T23:33:51.403Z,41.55
2022-09-02T23:36:35.271Z,41.73
2022-09-02T23:39:13.121Z,41.83
2022-09-02T23:41:47.534Z,41.77
2022-09-02T23:44:16.675Z,41.81
2022-09-02T23:47:00.457Z,41.83
2022-09-02T23:49:40.246Z,41.89
2022-09-02T23:52:22.994Z,41.89
2022-09-02T23:55:13.276Z,41.98
2022-09-02T23:57:58.719Z,42.33
